createdAt,value
2019-05-21T00:00:05.453Z,14.97
2019-05-21T00:02:40.943Z,14.92
2019-05-21T00:05:15.229Z,14.86
2019-05-21T00:07:49.695Z,14.79
2019-05-21T00:10:22.691Z,14.79
2019-05-21T00:12:56.949Z,14.55
2019-05-21T00:15:31.113Z,14.56
2019-05-21T00:18:05.657Z,14.56
2019-05-21T00:20:38.807Z,14.56
2019-05-21T00:23:13.276Z,14.54
2019-05-21T00:25:47.669Z,14.55
2019-05-21T00:28:40.688Z,14.62
2019-05-21T00:32:08.476Z,14.66
2019-05-21T00:35:49.271Z,14.56
2019-05-21T00:39:16.748Z,14.59
2019-05-21T00:42:02.867Z,14.59
2019-05-21T00:44:41.314Z,14.61
2019-05-21T00:47:16.351Z,14.64
2019-05-21T00:49:50.744Z,14.64
2019-05-21T00:52:23.647Z,14.62
2019-05-21T00:54:57.942Z,14.67
2019-05-21T00:57:32.274Z,14.68
2019-05-21T01:00:07.392Z,14.66
2019-05-21T01:02:41.809Z,14.61
2019-05-21T01:05:14.711Z,14.57
2019-05-21T01:07:48.933Z,14.55
2019-05-21T01:10:23.073Z,14.51
2019-05-21T01:12:57.315Z,14.48
2019-05-21T01:15:31.765Z,14.48
2019-05-21T01:18:04.629Z,14.46
2019-05-21T01:20:38.777Z,14.47
2019-05-21T01:23:11.666Z,14.50
2019-05-21T01:25:45.907Z,14.53
2019-05-21T01:28:18.988Z,14.48
2019-05-21T01:30:51.691Z,14.48
2019-05-21T01:33:25.914Z,14.41
2019-05-21T01:36:00.123Z,14.39
2019-05-21T01:38:34.648Z,14.33
2019-05-21T01:41:09.128Z,14.32
2019-05-21T01:43:43.631Z,14.30
2019-05-21T01:46:18.284Z,14.30
2019-05-21T01:48:52.664Z,14.28
2019-05-21T01:51:27.109Z,14.28
2019-05-21T01:54:01.617Z,14.25
2019-05-21T01:56:36.107Z,14.25
2019-05-21T01:59:10.629Z,14.13
2019-05-21T02:01:43.650Z,14.13
2019-05-21T02:04:17.885Z,14.14
2019-05-21T02:06:50.786Z,14.08
2019-05-21T02:09:24.936Z,14.10
2019-05-21T02:11:59.268Z,14.07
2019-05-21T02:14:33.761Z,14.05
2019-05-21T02:17:08.113Z,13.76
2019-05-21T02:19:42.629Z,13.85
2019-05-21T02:22:16.949Z,13.85
2019-05-21T02:24:52.318Z,13.88
2019-05-21T02:27:26.741Z,13.97
2019-05-21T02:30:00.952Z,13.95
2019-05-21T02:32:35.634Z,13.96
2019-05-21T02:35:09.949Z,13.96
2019-05-21T02:37:44.256Z,13.93
2019-05-21T02:40:20.664Z,13.90
2019-05-21T02:42:55.345Z,13.94
2019-05-21T02:45:29.770Z,13.98
2019-05-21T02:48:02.798Z,13.90
2019-05-21T02:50:36.917Z,13.75
2019-05-21T02:53:11.271Z,13.77
2019-05-21T02:55:45.655Z,13.80
2019-05-21T02:58:18.667Z,13.77
2019-05-21T03:01:11.541Z,13.71
2019-05-21T03:03:45.951Z,13.62
2019-05-21T03:06:20.313Z,13.49
2019-05-21T03:08:54.660Z,13.49
2019-05-21T03:11:29.115Z,13.52
2019-05-21T03:14:03.627Z,13.62
2019-05-21T03:16:38.939Z,13.62
2019-05-21T03:19:16.525Z,13.65
2019-05-21T03:21:49.270Z,13.59
2019-05-21T03:24:23.749Z,13.60
2019-05-21T03:26:58.125Z,13.61
2019-05-21T03:29:32.634Z,13.63
2019-05-21T03:32:06.923Z,13.61
2019-05-21T03:36:32.500Z,13.68
2019-05-21T03:38:53.301Z,13.49
2019-05-21T03:41:27.717Z,13.48
2019-05-21T03:44:01.944Z,13.48
2019-05-21T03:46:36.314Z,13.46
2019-05-21T03:49:10.753Z,13.46
2019-05-21T03:51:43.646Z,13.46
2019-05-21T03:54:17.865Z,13.47
2019-05-21T03:56:50.798Z,13.39
2019-05-21T03:59:25.080Z,13.43
2019-05-21T04:02:00.505Z,13.44
2019-05-21T04:04:35.105Z,13.44
2019-05-21T04:07:09.536Z,13.48
2019-05-21T04:09:43.939Z,13.48
2019-05-21T04:12:18.273Z,13.58
2019-05-21T04:14:56.857Z,13.60
2019-05-21T04:17:39.803Z,13.67
2019-05-21T04:20:14.272Z,13.73
2019-05-21T04:22:55.744Z,13.79
2019-05-21T04:25:28.686Z,13.83
2019-05-21T04:28:03.263Z,13.92
2019-05-21T04:30:37.691Z,14.03
2019-05-21T04:33:12.868Z,14.11
2019-05-21T04:35:47.318Z,14.17
2019-05-21T04:38:21.690Z,14.17
2019-05-21T04:40:54.668Z,14.20
2019-05-21T04:43:28.939Z,14.37
2019-05-21T04:46:03.405Z,14.37
2019-05-21T04:48:38.087Z,14.47
2019-05-21T04:51:13.962Z,14.59
2019-05-21T04:53:51.720Z,14.67
2019-05-21T04:56:27.309Z,14.67
2019-05-21T04:59:01.714Z,14.79
2019-05-21T05:01:35.945Z,14.89
2019-05-21T05:04:10.584Z,14.95
2019-05-21T05:06:44.895Z,14.98
2019-05-21T05:09:19.269Z,15.06
2019-05-21T05:11:53.641Z,15.06
2019-05-21T05:14:27.955Z,15.13
2019-05-21T05:17:02.255Z,15.27
2019-05-21T05:19:36.702Z,15.37
2019-05-21T05:22:09.698Z,15.45
2019-05-21T05:24:44.297Z,15.54
2019-05-21T05:27:18.924Z,15.61
2019-05-21T05:29:53.275Z,15.69
2019-05-21T05:32:27.889Z,15.82
2019-05-21T05:35:02.422Z,15.93
2019-05-21T05:37:44.320Z,16.07
2019-05-21T05:40:14.514Z,16.25
2019-05-21T05:42:49.272Z,16.25
2019-05-21T05:45:23.946Z,16.46
2019-05-21T05:47:58.660Z,16.58
2019-05-21T05:50:36.602Z,16.58
2019-05-21T05:53:10.945Z,16.67
2019-05-21T05:55:43.857Z,16.82
2019-05-21T05:58:17.281Z,16.93
2019-05-21T06:00:51.884Z,16.92
2019-05-21T06:03:25.101Z,16.86
2019-05-21T06:06:01.118Z,16.73
2019-05-21T06:08:35.660Z,16.74
2019-05-21T06:11:10.346Z,16.74
2019-05-21T06:13:46.282Z,16.88
2019-05-21T06:16:21.111Z,17.01
2019-05-21T06:18:55.736Z,17.32
2019-05-21T06:21:30.076Z,17.32
2019-05-21T06:24:04.668Z,17.61
2019-05-21T06:26:39.288Z,17.77
2019-05-21T06:29:13.945Z,17.77
2019-05-21T06:31:48.304Z,17.94
2019-05-21T06:34:22.940Z,18.02
2019-05-21T06:36:57.888Z,18.28
2019-05-21T06:39:32.173Z,18.28
2019-05-21T06:42:06.685Z,18.61
2019-05-21T06:44:41.282Z,18.66
2019-05-21T06:47:15.950Z,18.80
2019-05-21T06:49:50.641Z,19.37
2019-05-21T06:52:25.339Z,19.37
2019-05-21T06:54:59.935Z,19.27
2019-05-21T06:57:33.217Z,19.36
2019-05-21T07:00:08.310Z,19.46
2019-05-21T07:02:42.930Z,19.36
2019-05-21T07:05:17.761Z,19.49
2019-05-21T07:07:51.277Z,19.49
2019-05-21T07:10:25.657Z,19.66
2019-05-21T07:13:00.297Z,19.66
2019-05-21T07:15:34.954Z,20.17
2019-05-21T07:18:09.298Z,20.37
2019-05-21T07:23:16.946Z,21.06
2019-05-21T07:25:51.595Z,21.61
2019-05-21T07:28:26.355Z,21.61
2019-05-21T07:31:00.954Z,21.49
2019-05-21T07:33:33.869Z,21.32
2019-05-21T07:36:07.920Z,21.45
2019-05-21T07:38:52.639Z,21.50
2019-05-21T07:41:20.319Z,21.81
2019-05-21T07:43:55.278Z,22.22
2019-05-21T07:46:29.692Z,22.02
2019-05-21T07:49:03.289Z,22.13
2019-05-21T07:51:37.695Z,22.57
2019-05-21T07:54:12.299Z,22.57
2019-05-21T07:56:47.281Z,23.00
2019-05-21T07:59:21.877Z,23.33
2019-05-21T08:01:54.874Z,23.40
2019-05-21T08:04:29.347Z,23.67
2019-05-21T08:07:05.085Z,23.80
2019-05-21T08:09:39.781Z,24.23
2019-05-21T08:12:35.359Z,24.23
2019-05-21T08:14:49.287Z,24.43
2019-05-21T08:17:24.140Z,24.14
2019-05-21T08:20:08.642Z,24.56
2019-05-21T08:22:35.142Z,24.81
2019-05-21T08:25:14.232Z,25.29
2019-05-21T08:27:45.956Z,25.29
2019-05-21T08:30:20.941Z,24.46
2019-05-21T08:32:55.708Z,24.23
2019-05-21T08:35:30.140Z,24.23
2019-05-21T08:38:06.825Z,25.17
2019-05-21T08:40:41.281Z,26.31
2019-05-21T08:43:15.939Z,26.12
2019-05-21T08:45:51.285Z,26.44
2019-05-21T08:48:25.715Z,26.03
2019-05-21T08:51:01.750Z,25.71
2019-05-21T08:53:35.274Z,25.48
2019-05-21T08:56:09.860Z,24.65
2019-05-21T08:58:44.301Z,24.65
2019-05-21T09:01:18.883Z,24.53
2019-05-21T09:03:52.088Z,24.35
2019-05-21T09:06:26.315Z,24.35
2019-05-21T09:09:00.754Z,24.06
2019-05-21T09:11:36.869Z,23.75
2019-05-21T09:14:10.117Z,23.66
2019-05-21T09:16:44.311Z,25.61
2019-05-21T09:19:18.940Z,25.61
2019-05-21T09:21:53.651Z,26.07
2019-05-21T09:24:28.265Z,25.96
2019-05-21T09:27:02.829Z,25.56
2019-05-21T09:29:36.104Z,26.85
2019-05-21T09:32:10.703Z,27.78
2019-05-21T09:34:49.122Z,28.40
2019-05-21T09:37:21.785Z,29.03
2019-05-21T09:39:56.273Z,29.03
2019-05-21T09:42:30.646Z,25.84
2019-05-21T09:45:05.610Z,25.84
2019-05-21T09:47:38.848Z,25.26
2019-05-21T09:50:13.811Z,24.90
2019-05-21T09:52:48.267Z,24.50
2019-05-21T09:55:23.361Z,24.08
2019-05-21T09:58:35.278Z,23.99
2019-05-21T10:01:25.269Z,24.38
2019-05-21T10:04:00.440Z,26.31
2019-05-21T10:06:34.941Z,26.31
2019-05-21T10:09:12.935Z,26.04
2019-05-21T10:11:47.316Z,26.42
2019-05-21T10:14:21.716Z,26.42
2019-05-21T10:16:56.651Z,26.60
2019-05-21T10:19:31.262Z,25.90
2019-05-21T10:22:06.189Z,26.57
2019-05-21T10:24:40.923Z,26.35
2019-05-21T10:27:15.312Z,25.92
2019-05-21T10:29:50.953Z,25.63
2019-05-21T10:32:25.647Z,27.50
2019-05-21T10:35:00.140Z,27.50
2019-05-21T10:37:34.722Z,28.54
2019-05-21T10:40:08.462Z,28.85
2019-05-21T10:42:42.747Z,28.92
2019-05-21T10:45:16.250Z,29.13
2019-05-21T10:47:50.741Z,30.16
2019-05-21T10:50:25.281Z,30.16
2019-05-21T10:52:59.737Z,30.11
2019-05-21T10:55:33.283Z,30.30
2019-05-21T10:58:07.710Z,31.10
2019-05-21T11:00:41.279Z,31.10
2019-05-21T11:03:19.345Z,32.16
2019-05-21T11:06:09.163Z,32.16
2019-05-21T11:08:31.941Z,31.31
2019-05-21T11:11:06.629Z,31.64
2019-05-21T11:13:42.011Z,30.34
2019-05-21T11:16:16.658Z,31.27
2019-05-21T11:18:50.020Z,32.39
2019-05-21T11:21:23.272Z,31.98
2019-05-21T11:23:57.959Z,31.31
2019-05-21T11:26:32.584Z,31.31
2019-05-21T11:29:07.320Z,30.26
2019-05-21T11:31:55.756Z,31.80
2019-05-21T11:34:18.438Z,32.71
2019-05-21T11:36:52.973Z,33.62
2019-05-21T11:39:27.319Z,33.95
2019-05-21T11:42:02.272Z,34.16
2019-05-21T11:44:36.870Z,34.46
2019-05-21T11:47:11.301Z,35.06
2019-05-21T11:49:45.929Z,34.36
2019-05-21T11:52:20.624Z,33.83
2019-05-21T11:54:55.965Z,33.83
2019-05-21T11:57:30.750Z,34.23
2019-05-21T12:00:04.239Z,34.23
2019-05-21T12:02:39.762Z,33.28
2019-05-21T12:05:13.278Z,34.53
2019-05-21T12:07:47.702Z,35.05
2019-05-21T12:10:22.276Z,35.05
2019-05-21T12:12:56.682Z,34.10
2019-05-21T12:15:31.279Z,32.73
2019-05-21T12:18:05.674Z,30.53
2019-05-21T12:20:38.871Z,30.53
2019-05-21T12:23:11.802Z,30.16
2019-05-21T12:25:44.672Z,29.89
2019-05-21T12:28:19.282Z,29.51
2019-05-21T12:30:53.950Z,29.52
2019-05-21T12:33:28.674Z,30.24
2019-05-21T12:36:02.939Z,30.69
2019-05-21T12:38:37.328Z,28.87
2019-05-21T12:41:13.731Z,28.87
2019-05-21T12:43:48.566Z,28.04
2019-05-21T12:46:23.202Z,28.04
2019-05-21T12:48:57.554Z,27.59
2019-05-21T12:51:32.275Z,27.59
2019-05-21T12:54:06.951Z,27.33
2019-05-21T12:56:41.447Z,27.83
2019-05-21T12:59:16.875Z,27.83
2019-05-21T13:01:51.246Z,27.56
2019-05-21T13:04:25.617Z,27.36
2019-05-21T13:06:59.935Z,26.97
2019-05-21T13:09:34.257Z,26.78
2019-05-21T13:12:08.879Z,26.59
2019-05-21T13:14:43.408Z,26.45
2019-05-21T13:17:17.943Z,26.47
2019-05-21T13:19:53.638Z,26.74
2019-05-21T13:22:28.304Z,26.74
2019-05-21T13:25:02.870Z,28.55
2019-05-21T13:27:37.267Z,32.44
2019-05-21T13:30:12.283Z,32.44
2019-05-21T13:32:46.815Z,30.73
2019-05-21T13:35:19.854Z,29.96
2019-05-21T13:37:54.070Z,29.67
2019-05-21T13:40:29.269Z,28.79
2019-05-21T13:43:03.660Z,28.79
2019-05-21T13:45:38.277Z,28.69
2019-05-21T13:48:12.686Z,30.33
2019-05-21T13:50:47.293Z,32.29
2019-05-21T13:53:21.988Z,32.60
2019-05-21T13:55:56.302Z,31.25
2019-05-21T13:58:30.717Z,30.07
2019-05-21T14:01:05.963Z,29.56
2019-05-21T14:03:42.237Z,29.38
2019-05-21T14:06:19.982Z,30.89
2019-05-21T14:08:52.947Z,30.76
2019-05-21T14:11:28.268Z,31.05
2019-05-21T14:14:03.272Z,31.28
2019-05-21T14:16:38.708Z,32.45
2019-05-21T14:19:13.274Z,31.85
2019-05-21T14:21:47.717Z,31.86
2019-05-21T14:24:21.951Z,31.94
2019-05-21T14:26:56.326Z,30.62
2019-05-21T14:29:31.144Z,29.95
2019-05-21T14:32:07.335Z,30.46
2019-05-21T14:34:42.269Z,30.07
2019-05-21T14:37:16.739Z,29.65
2019-05-21T14:39:49.857Z,30.31
2019-05-21T14:42:23.034Z,31.39
2019-05-21T14:44:57.264Z,32.68
2019-05-21T14:47:31.674Z,32.99
2019-05-21T14:50:06.623Z,32.79
2019-05-21T14:52:40.953Z,33.18
2019-05-21T14:55:15.638Z,31.77
2019-05-21T14:57:50.288Z,30.96
2019-05-21T15:00:33.393Z,29.82
2019-05-21T15:03:23.883Z,29.82
2019-05-21T15:05:44.268Z,29.63
2019-05-21T15:08:19.263Z,30.14
2019-05-21T15:10:53.684Z,30.09
2019-05-21T15:13:28.110Z,30.31
2019-05-21T15:16:02.671Z,29.88
2019-05-21T15:18:36.310Z,29.88
2019-05-21T15:21:25.271Z,29.64
2019-05-21T15:23:59.662Z,29.13
2019-05-21T15:26:33.944Z,28.38
2019-05-21T15:29:08.271Z,28.01
2019-05-21T15:31:43.152Z,27.87
2019-05-21T15:34:17.669Z,27.25
2019-05-21T15:36:51.948Z,27.25
2019-05-21T15:39:26.274Z,27.01
2019-05-21T15:42:00.839Z,26.98
2019-05-21T15:44:35.270Z,27.12
2019-05-21T15:47:09.708Z,27.01
2019-05-21T15:49:42.674Z,26.63
2019-05-21T15:52:16.977Z,26.46
2019-05-21T15:54:51.404Z,26.61
2019-05-21T15:57:25.953Z,26.61
2019-05-21T16:00:00.278Z,26.47
2019-05-21T16:02:34.730Z,26.31
2019-05-21T16:05:09.942Z,26.08
2019-05-21T16:07:44.280Z,26.08
2019-05-21T16:10:18.828Z,25.93
2019-05-21T16:12:54.144Z,25.67
2019-05-21T16:15:29.274Z,25.67
2019-05-21T16:18:03.687Z,25.57
2019-05-21T16:20:37.109Z,25.61
2019-05-21T16:23:12.252Z,25.26
2019-05-21T16:25:47.354Z,25.26
2019-05-21T16:28:22.287Z,25.17
2019-05-21T16:30:57.854Z,24.96
2019-05-21T16:33:33.575Z,25.01
2019-05-21T16:36:08.292Z,24.81
2019-05-21T16:38:42.871Z,24.74
2019-05-21T16:41:18.181Z,24.67
2019-05-21T16:43:53.137Z,24.64
2019-05-21T16:46:30.662Z,24.85
2019-05-21T16:49:04.328Z,24.83
2019-05-21T16:51:39.313Z,24.85
2019-05-21T16:54:15.326Z,24.74
2019-05-21T16:56:52.086Z,24.92
2019-05-21T16:59:28.303Z,24.92
2019-05-21T17:02:03.151Z,24.95
2019-05-21T17:04:37.730Z,24.95
2019-05-21T17:07:10.873Z,24.95
2019-05-21T17:09:45.275Z,24.84
2019-05-21T17:12:19.713Z,24.73
2019-05-21T17:14:54.132Z,24.62
2019-05-21T17:17:28.708Z,24.55
2019-05-21T17:20:03.529Z,24.48
2019-05-21T17:22:37.955Z,24.19
2019-05-21T17:25:12.916Z,24.14
2019-05-21T17:27:47.284Z,24.14
2019-05-21T17:30:22.300Z,24.02
2019-05-21T17:32:57.122Z,23.95
2019-05-21T17:35:31.904Z,23.84
2019-05-21T17:38:06.611Z,23.80
2019-05-21T17:40:41.261Z,23.74
2019-05-21T17:43:15.700Z,23.65
2019-05-21T17:45:49.969Z,23.48
2019-05-21T17:48:24.274Z,23.45
2019-05-21T17:50:58.958Z,23.35
2019-05-21T17:53:33.652Z,23.11
2019-05-21T17:56:08.296Z,23.11
2019-05-21T17:58:42.796Z,22.95
2019-05-21T18:01:16.269Z,22.89
2019-05-21T18:03:51.680Z,22.80
2019-05-21T18:06:26.135Z,22.80
2019-05-21T18:09:01.380Z,22.61
2019-05-21T18:11:37.662Z,22.61
2019-05-21T18:14:11.310Z,22.54
2019-05-21T18:16:45.687Z,22.49
2019-05-21T18:19:21.298Z,22.41
2019-05-21T18:21:56.266Z,22.32
2019-05-21T18:24:33.290Z,22.25
2019-05-21T18:27:41.720Z,22.15
2019-05-21T18:30:22.334Z,22.07
2019-05-21T18:32:57.664Z,22.03
2019-05-21T18:35:32.973Z,21.97
2019-05-21T18:38:07.769Z,21.78
2019-05-21T18:40:40.789Z,21.78
2019-05-21T18:43:15.137Z,21.79
2019-05-21T18:45:49.746Z,21.72
2019-05-21T18:48:23.813Z,21.61
2019-05-21T18:50:58.950Z,21.44
2019-05-21T18:53:33.287Z,21.44
2019-05-21T18:56:07.902Z,21.37
2019-05-21T18:58:42.323Z,21.24
2019-05-21T19:01:16.958Z,21.16
2019-05-21T19:03:51.663Z,21.08
2019-05-21T19:06:24.732Z,21.04
2019-05-21T19:08:59.120Z,20.88
2019-05-21T19:11:33.756Z,20.84
2019-05-21T19:14:08.330Z,20.77
2019-05-21T19:16:42.957Z,20.72
2019-05-21T19:19:17.289Z,20.42
2019-05-21T19:21:51.777Z,20.42
2019-05-21T19:24:26.306Z,20.31
2019-05-21T19:27:00.989Z,20.22
2019-05-21T19:29:35.682Z,20.15
2019-05-21T19:32:09.701Z,20.15
2019-05-21T19:34:44.882Z,19.98
2019-05-21T19:37:19.281Z,19.99
2019-05-21T19:39:53.735Z,19.89
2019-05-21T19:42:26.727Z,19.85
2019-05-21T19:45:01.002Z,19.67
2019-05-21T19:47:35.662Z,19.32
2019-05-21T19:50:11.299Z,19.32
2019-05-21T19:52:45.872Z,19.22
2019-05-21T19:55:20.283Z,18.95
2019-05-21T19:57:55.763Z,18.95
2019-05-21T20:00:31.278Z,18.95
2019-05-21T20:03:06.556Z,18.84
2019-05-21T20:05:41.298Z,18.84
2019-05-21T20:08:16.278Z,18.86
2019-05-21T20:10:51.283Z,18.85
2019-05-21T20:13:32.678Z,18.90
2019-05-21T20:16:03.297Z,18.93
2019-05-21T20:18:38.115Z,18.93
2019-05-21T20:21:14.350Z,18.85
2019-05-21T20:23:49.284Z,18.85
2019-05-21T20:26:27.373Z,18.89
2019-05-21T20:29:02.958Z,18.85
2019-05-21T20:31:39.468Z,18.84
2019-05-21T20:34:14.392Z,18.70
2019-05-21T20:36:52.287Z,18.80
2019-05-21T20:39:27.325Z,18.77
2019-05-21T20:42:01.784Z,18.70
2019-05-21T20:44:35.046Z,18.76
2019-05-21T20:47:10.286Z,18.67
2019-05-21T20:49:47.503Z,18.63
2019-05-21T20:52:22.896Z,18.48
2019-05-21T20:54:57.567Z,18.43
2019-05-21T20:57:31.959Z,18.37
2019-05-21T21:00:07.294Z,18.32
2019-05-21T21:02:42.037Z,18.12
2019-05-21T21:05:15.416Z,17.99
2019-05-21T21:07:50.063Z,18.01
2019-05-21T21:10:24.828Z,17.88
2019-05-21T21:12:59.013Z,17.85
2019-05-21T21:15:34.648Z,17.69
2019-05-21T21:18:09.297Z,17.69
2019-05-21T21:20:44.121Z,17.65
2019-05-21T21:23:20.720Z,17.77
2019-05-21T21:25:53.713Z,17.77
2019-05-21T21:28:27.966Z,17.78
2019-05-21T21:31:03.294Z,17.56
2019-05-21T21:33:38.385Z,17.56
2019-05-21T21:36:13.290Z,17.63
2019-05-21T21:38:48.399Z,17.53
2019-05-21T21:41:23.293Z,17.48
2019-05-21T21:43:57.702Z,17.42
2019-05-21T21:46:32.136Z,17.47
2019-05-21T21:49:08.379Z,17.32
2019-05-21T21:51:42.959Z,17.32
2019-05-21T21:54:17.441Z,17.33
2019-05-21T21:56:51.943Z,17.30
2019-05-21T21:59:28.372Z,17.30
2019-05-21T22:02:16.293Z,17.40
2019-05-21T22:04:51.702Z,17.41
2019-05-21T22:07:28.298Z,17.35
2019-05-21T22:10:02.806Z,17.38
2019-05-21T22:12:38.408Z,17.17
2019-05-21T22:15:12.900Z,17.17
2019-05-21T22:17:47.404Z,17.18
2019-05-21T22:20:22.300Z,17.26
2019-05-21T22:23:13.281Z,17.18
2019-05-21T22:25:48.880Z,17.20
2019-05-21T22:28:22.527Z,17.20
2019-05-21T22:30:57.492Z,17.13
2019-05-21T22:33:32.273Z,17.07
2019-05-21T22:36:08.138Z,17.07
2019-05-21T22:38:42.691Z,17.05
2019-05-21T22:41:16.667Z,17.08
2019-05-21T22:43:50.916Z,17.14
2019-05-21T22:46:25.426Z,17.10
2019-05-21T22:48:59.866Z,17.01
2019-05-21T22:51:34.289Z,16.97
2019-05-21T22:54:08.857Z,16.95
2019-05-21T22:56:43.431Z,16.99
2019-05-21T22:59:21.783Z,17.02
2019-05-21T23:01:58.111Z,17.02
2019-05-21T23:04:32.717Z,17.04
2019-05-21T23:07:08.948Z,17.06
2019-05-21T23:09:43.278Z,17.06
2019-05-21T23:12:18.613Z,17.04
2019-05-21T23:14:53.281Z,17.06
2019-05-21T23:17:27.863Z,17.08
2019-05-21T23:20:08.486Z,16.97
2019-05-21T23:22:47.326Z,17.04
2019-05-21T23:25:22.763Z,17.04
2019-05-21T23:27:57.394Z,16.99
2019-05-21T23:30:32.288Z,16.93
2019-05-21T23:33:07.303Z,16.84
2019-05-21T23:35:42.945Z,16.84
2019-05-21T23:38:18.691Z,16.83
2019-05-21T23:40:53.790Z,16.82
2019-05-21T23:43:28.280Z,16.84
2019-05-21T23:46:03.289Z,16.78
2019-05-21T23:48:38.430Z,16.69
2019-05-21T23:51:12.883Z,16.69
2019-05-21T23:53:47.317Z,16.70
2019-05-21T23:56:21.755Z,16.56
2019-05-21T23:58:57.789Z,16.48
